AGROMETEOROLOŠKI PORTAL

vinorodna pokrajina

Temelj dobrega kmetovanja

Pregled podatkov za lokacijo TREBNJE ARSO, meteorološka postaja 148

Pregled senzorjev na lokaciji

ID Ime Zadnja
vrednost
Datum in čas
meritve
(lokalni čas)
Tip
senzorja
4807 Padavine (mm) 0 mm 6.10.2022 06:30 ARSO
4811 Relativna zračna vlaga (2 m) (% RH) 98 % RH 6.10.2022 06:30 ARSO
4810 Temperatura (2 m) (°C) 7,9 °C 6.10.2022 06:30 ARSO

Pregled podatkov zadnjih 24 ur

Zap.
št.
Datum in čas
(lokalni čas)
TREBNJE ARSO
Padavine Relativna
zračna
vlaga
(2
m)
Temperatura
(2
m)
1 6.10.2022 06:30 0 98 7,9
2 6.10.2022 06:00 0 97,7 8
3 6.10.2022 05:30 0 98 8,4
4 6.10.2022 05:00 0 97,3 8,8
5 6.10.2022 04:30 0 97 9
6 6.10.2022 04:00 0 98 9,5
7 6.10.2022 03:30 0 97,7 9,7
8 6.10.2022 03:00 0 98 9,8
9 6.10.2022 02:30 0 97,7 9,9
10 6.10.2022 02:00 0 97 10,2
11 6.10.2022 01:30 0 96,7 10,5
12 6.10.2022 01:00 0 96 10,8
13 6.10.2022 00:30 0 95,7 11
14 6.10.2022 00:00 0 95 11,4
15 5.10.2022 23:30 0 95 11,9
16 5.10.2022 23:00 0 94 12,4
17 5.10.2022 22:30 0 92,7 12,7
18 5.10.2022 22:00 0 90,7 13,1
19 5.10.2022 21:30 0 87,7 13,8
20 5.10.2022 21:00 0 84 14,5
21 5.10.2022 20:30 0 79,7 15,2
22 5.10.2022 20:00 0 75,7 16,1
23 5.10.2022 19:30 0 71 16,9
24 5.10.2022 19:00 0 69,7 17,5
25 5.10.2022 18:30 0 65,7 18,6
26 5.10.2022 18:00 0 63 19,7
27 5.10.2022 17:30 0 63 20,2
28 5.10.2022 17:00 0 62,7 20,5
29 5.10.2022 16:30 0 59,3 21,1
30 5.10.2022 16:00 0 57,7 21,4
31 5.10.2022 15:30 0 59,7 21
32 5.10.2022 15:00 0 60 20,7
33 5.10.2022 14:30 0 60,7 20,3
34 5.10.2022 14:00 0 64 19,7
35 5.10.2022 13:30 0 64,3 19,1
36 5.10.2022 13:00 0 64,7 18,8
37 5.10.2022 12:30 0 65 18,2
38 5.10.2022 12:00 0 68,7 17,2
39 5.10.2022 11:30 0 72,3 15,9
40 5.10.2022 11:00 0 74 14,9
41 5.10.2022 10:30 0 83,7 12,5
42 5.10.2022 10:00 0 88,7 10,8
43 5.10.2022 09:30 0 93,3 9,2
44 5.10.2022 09:00 0 97 7,8
45 5.10.2022 08:30 0 99,7 6,2
46 5.10.2022 08:00 0 98,7 5,5